Time;durP1;ratioP1;P1;durP2;ratioP2;P2;SDS_P1;SDS_P2;PMS_P1;PMS_P2;Temp;Humidity;BMP_temperature;BMP_pressure;BME280_temperature;BME280_humidity;BME280_pressure;Samples;Min_cycle;Max_cycle;Signal;HPM_P1;HPM_P2
2022/08/03 00:00:34;;;;;;;;;;;;;;;33.99;32.99;100093.28;4415971;32;19958;-68
2022/08/03 00:02:59;;;;;;;;;;;;;;;34.14;32.64;100093.69;4417112;32;19972;-68
2022/08/03 00:05:24;;;;;;;;;;;;;;;33.46;33.88;100085.63;4412891;32;19945;-68
2022/08/03 00:07:50;;;;;;;;;;;;;;;33.83;33.36;100080.34;4414438;32;19961;-67
2022/08/03 00:10:16;;;;;;;;;;;;;;;33.81;33.36;100083.88;4414586;32;19989;-69
2022/08/03 00:12:41;;;;;;;;;;;;;;;33.45;34.14;100075.34;4413644;32;19961;-68
2022/08/03 00:15:07;;;;;;;;;;;;;;;33.79;33.57;100085.91;4414376;32;20000;-68
2022/08/03 00:17:33;;;;;;;;;;;;;;;33.60;33.86;100085.94;4413250;32;20003;-69
2022/08/03 00:19:58;;;;;;;;;;;;;;;33.71;33.69;100073.66;4414605;32;20012;-69
2022/08/03 00:22:23;;;;;;;;;;;;;;;33.77;33.78;100082.81;4414734;32;19997;-68
2022/08/03 00:24:49;;;;;;;;;;;;;;;33.81;33.61;100083.88;4414969;32;20013;-68
2022/08/03 00:27:15;;;;;;;;;;;;;;;33.75;33.69;100076.84;4413573;32;20025;-68
2022/08/03 00:29:40;;;;;;;;;;;;;;;34.26;32.88;100079.19;4413300;32;20034;-69
2022/08/03 00:32:05;;;;;;;;;;;;;;;34.17;33.03;100077.06;4412288;32;20328;-69
2022/08/03 00:34:31;;;;;;;;;;;;;;;34.54;32.46;100069.53;4417343;32;20034;-68
2022/08/03 00:36:56;;;;;;;;;;;;;;;34.58;32.42;100075.69;4418375;32;19989;-68
2022/08/03 00:39:22;;;;;;;;;;;;;;;34.18;33.17;100061.09;4413776;32;19996;-69
2022/08/03 00:41:47;;;;;;;;;;;;;;;34.29;33.02;100069.16;4416585;32;20269;-69
2022/08/03 00:44:13;;;;;;;;;;;;;;;34.23;33.01;100071.66;4418850;32;20347;-69
2022/08/03 00:46:39;;;;;;;;;;;;;;;34.38;32.84;100059.62;4412886;32;19999;-68
2022/08/03 00:49:04;;;;;;;;;;;;;;;34.50;32.78;100059.72;4415234;32;20042;-68
2022/08/03 00:51:30;;;;;;;;;;;;;;;34.19;33.43;100050.94;4413423;32;20012;-68
2022/08/03 00:53:56;;;;;;;;;;;;;;;34.24;33.27;100049.84;4415869;32;20398;-69
2022/08/03 00:56:21;;;;;;;;;;;;;;;34.49;32.84;100041.44;4415558;32;20005;-68
2022/08/03 00:58:47;;;;;;;;;;;;;;;34.42;33.04;100043.16;4414116;32;20024;-67
2022/08/03 01:01:13;;;;;;;;;;;;;;;34.08;33.72;100037.00;4414180;32;19993;-68
2022/08/03 01:03:39;;;;;;;;;;;;;;;34.38;33.12;100039.19;4414597;32;19998;-68
2022/08/03 01:06:16;;;;;;;;;;;;;;;34.00;33.87;100027.63;4412964;32;19997;-68
2022/08/03 01:08:47;;;;;;;;;;;;;;;34.46;33.18;100031.00;4416413;32;20000;-69
2022/08/03 01:11:18;;;;;;;;;;;;;;;34.18;33.59;100031.88;4415333;32;19972;-68
2022/08/03 01:14:03;;;;;;;;;;;;;;;33.25;35.10;100023.44;4416228;32;19969;-67
2022/08/03 01:16:36;;;;;;;;;;;;;;;34.05;33.95;100026.56;4413622;32;20001;-69
2022/08/03 01:19:21;;;;;;;;;;;;;;;34.17;33.62;100021.56;4412729;32;20078;-68
2022/08/03 01:22:07;;;;;;;;;;;;;;;34.37;33.25;100017.19;4415971;32;20036;-68
2022/08/03 01:24:45;;;;;;;;;;;;;;;34.20;33.42;100023.25;4412995;32;20008;-68
2022/08/03 01:27:16;;;;;;;;;;;;;;;34.13;33.57;100021.28;4414665;32;19980;-68
2022/08/03 01:30:02;;;;;;;;;;;;;;;34.11;33.49;100012.38;4412890;32;19995;-69
2022/08/03 01:32:34;;;;;;;;;;;;;;;34.06;33.61;100017.19;4418905;32;20018;-68
2022/08/03 01:35:05;;;;;;;;;;;;;;;34.31;33.13;100017.53;4417204;32;20005;-69
2022/08/03 01:37:35;;;;;;;;;;;;;;;34.34;33.07;100022.12;4403846;32;19986;-68
2022/08/03 01:40:02;;;;;;;;;;;;;;;34.96;32.08;100019.13;4415457;32;19993;-68
2022/08/03 01:42:30;;;;;;;;;;;;;;;34.57;32.53;100021.53;4413463;32;19989;-69
2022/08/03 01:44:56;;;;;;;;;;;;;;;34.42;32.67;100013.19;4417901;32;19998;-68
2022/08/03 01:47:23;;;;;;;;;;;;;;;34.66;32.39;100009.00;4419620;32;19965;-68
2022/08/03 01:49:49;;;;;;;;;;;;;;;34.53;32.31;100012.50;4417769;32;20343;-70
2022/08/03 01:52:17;;;;;;;;;;;;;;;34.65;32.21;100018.41;4416977;32;20020;-68
2022/08/03 01:54:44;;;;;;;;;;;;;;;34.44;32.54;100009.66;4417782;32;20391;-69
2022/08/03 01:57:10;;;;;;;;;;;;;;;34.00;33.36;100010.13;4419281;32;19981;-69
2022/08/03 01:59:37;;;;;;;;;;;;;;;34.00;33.24;100013.03;4413567;32;20436;-69
2022/08/03 02:02:03;;;;;;;;;;;;;;;33.53;34.13;100011.75;4418719;32;20333;-68
2022/08/03 02:04:29;;;;;;;;;;;;;;;34.08;33.05;100010.72;4418241;32;20001;-68
2022/08/03 02:06:56;;;;;;;;;;;;;;;33.57;34.12;100017.13;4415829;32;19957;-68
2022/08/03 02:09:22;;;;;;;;;;;;;;;33.85;33.63;100013.37;4414571;32;19998;-68
2022/08/03 02:11:50;;;;;;;;;;;;;;;34.04;33.30;100013.31;4417650;32;20023;-68
2022/08/03 02:14:16;;;;;;;;;;;;;;;34.09;33.09;100010.09;4419042;32;19950;-68
2022/08/03 02:16:42;;;;;;;;;;;;;;;34.07;32.96;99994.56;4414874;32;20554;-68
2022/08/03 02:19:09;;;;;;;;;;;;;;;33.83;33.39;99989.84;4417730;32;21499;-68
2022/08/03 02:21:36;;;;;;;;;;;;;;;33.48;34.19;100003.31;4418734;32;20316;-68
2022/08/03 02:24:03;;;;;;;;;;;;;;;33.74;33.73;99997.28;4417088;32;20041;-68
2022/08/03 02:26:29;;;;;;;;;;;;;;;33.68;33.63;99996.81;4414454;32;20007;-69
2022/08/03 02:28:55;;;;;;;;;;;;;;;33.15;34.70;100008.09;4417605;32;20398;-67
2022/08/03 02:31:23;;;;;;;;;;;;;;;33.87;33.57;100005.53;4411333;32;20778;-68
2022/08/03 02:33:52;;;;;;;;;;;;;;;33.66;33.73;100017.13;4418677;32;20346;-68
2022/08/03 02:36:24;;;;;;;;;;;;;;;33.61;33.82;100006.53;4414750;32;19984;-68
2022/08/03 02:38:52;;;;;;;;;;;;;;;33.59;33.96;100008.53;4416341;32;19982;-68
2022/08/03 02:41:21;;;;;;;;;;;;;;;33.35;34.33;100010.41;4415059;32;19968;-67
2022/08/03 02:43:48;;;;;;;;;;;;;;;33.18;34.52;100021.44;4414855;32;20056;-68
2022/08/03 02:46:17;;;;;;;;;;;;;;;33.18;34.59;100004.72;4416952;32;19966;-68
2022/08/03 02:48:43;;;;;;;;;;;;;;;33.01;34.92;99990.28;4413707;32;20877;-68
2022/08/03 02:51:09;;;;;;;;;;;;;;;33.46;34.14;100009.78;4415837;32;19997;-68
2022/08/03 02:53:35;;;;;;;;;;;;;;;33.84;33.61;100011.84;4418080;32;19953;-68
2022/08/03 02:56:02;;;;;;;;;;;;;;;34.05;33.07;100014.88;4417633;32;19997;-68
2022/08/03 02:58:30;;;;;;;;;;;;;;;34.04;33.25;100025.00;4415400;32;19992;-68
2022/08/03 03:00:56;;;;;;;;;;;;;;;34.22;32.88;100023.41;4413426;32;20005;-68
2022/08/03 03:03:22;;;;;;;;;;;;;;;33.78;33.45;100020.16;4413481;32;19953;-68
2022/08/03 03:05:50;;;;;;;;;;;;;;;33.51;34.04;100032.03;4416329;32;19976;-69
2022/08/03 03:08:20;;;;;;;;;;;;;;;33.55;34.02;100037.41;4417541;32;20034;-68
2022/08/03 03:10:48;;;;;;;;;;;;;;;33.66;33.78;100036.78;4416918;32;20015;-68
2022/08/03 03:13:24;;;;;;;;;;;;;;;33.25;34.53;100032.19;4414523;32;20057;-68
2022/08/03 03:15:51;;;;;;;;;;;;;;;33.40;34.19;100020.22;4414509;32;20429;-68
2022/08/03 03:18:16;;;;;;;;;;;;;;;32.94;35.00;100013.78;4412094;32;20451;-68
2022/08/03 03:20:44;;;;;;;;;;;;;;;33.24;34.45;100013.16;4401846;32;20001;-68
2022/08/03 03:23:10;;;;;;;;;;;;;;;33.37;34.20;100018.56;4415226;32;20305;-68
2022/08/03 03:25:36;;;;;;;;;;;;;;;32.76;35.10;100003.59;4416350;32;20348;-68
2022/08/03 03:28:03;;;;;;;;;;;;;;;32.98;34.69;100014.88;4415169;32;19953;-67
2022/08/03 03:30:29;;;;;;;;;;;;;;;33.48;33.88;99997.50;4415301;32;19967;-67
2022/08/03 03:32:54;;;;;;;;;;;;;;;32.96;34.85;100013.91;4399551;32;20008;-68
2022/08/03 03:35:20;;;;;;;;;;;;;;;33.30;34.26;100022.34;4414539;32;20012;-67
2022/08/03 03:37:46;;;;;;;;;;;;;;;33.54;33.83;100009.63;4416260;32;20471;-68
2022/08/03 03:40:12;;;;;;;;;;;;;;;33.07;34.23;100011.16;4414783;32;19997;-68
2022/08/03 03:42:38;;;;;;;;;;;;;;;32.75;34.79;100019.53;4414004;32;19954;-67
2022/08/03 03:45:05;;;;;;;;;;;;;;;33.24;34.10;100024.81;4416471;32;20009;-68
2022/08/03 03:47:30;;;;;;;;;;;;;;;33.76;33.34;100025.84;4413939;32;19989;-68
2022/08/03 03:49:57;;;;;;;;;;;;;;;33.64;33.36;100022.81;4412675;32;20044;-67
2022/08/03 03:52:22;;;;;;;;;;;;;;;33.65;33.25;100023.56;4414590;32;19993;-67
2022/08/03 03:54:48;;;;;;;;;;;;;;;33.77;32.95;100024.44;4413389;32;20000;-67
2022/08/03 03:57:14;;;;;;;;;;;;;;;34.29;32.17;100022.44;4414106;32;20354;-67
2022/08/03 03:59:41;;;;;;;;;;;;;;;34.43;31.81;100038.09;4413702;32;19960;-68
2022/08/03 04:02:07;;;;;;;;;;;;;;;34.38;32.00;100027.50;4413354;32;20360;-68
2022/08/03 04:12:58;;;;;;;;;;;;;;;33.89;32.78;100031.97;4413294;32;19981;-67
2022/08/03 04:15:25;;;;;;;;;;;;;;;34.47;31.69;100044.22;4414028;32;20413;-67
2022/08/03 04:17:52;;;;;;;;;;;;;;;34.16;32.27;100035.41;4414611;32;20004;-67
2022/08/03 04:20:19;;;;;;;;;;;;;;;34.24;32.08;100030.13;4413638;32;20435;-67
2022/08/03 04:22:46;;;;;;;;;;;;;;;34.57;31.56;100018.59;4414536;32;19985;-68
2022/08/03 04:25:16;;;;;;;;;;;;;;;33.92;32.45;100015.38;4413392;32;19965;-68
2022/08/03 04:27:43;;;;;;;;;;;;;;;34.52;31.58;100034.34;4417217;32;19957;-68
2022/08/03 04:30:09;;;;;;;;;;;;;;;34.70;31.28;100044.41;4415156;32;19990;-68
2022/08/03 04:32:36;;;;;;;;;;;;;;;35.11;30.71;100045.81;4414075;32;20026;-68
2022/08/03 04:35:02;;;;;;;;;;;;;;;34.70;31.17;100049.47;4415753;32;20621;-68
2022/08/03 04:37:46;;;;;;;;;;;;;;;34.77;31.03;100058.03;4411619;32;20098;-68
2022/08/03 04:40:14;;;;;;;;;;;;;;;35.18;30.62;100053.59;4412709;32;21058;-68
2022/08/03 04:42:40;;;;;;;;;;;;;;;35.29;30.38;100052.12;4416053;32;20018;-68
2022/08/03 04:45:07;;;;;;;;;;;;;;;34.48;31.63;100047.91;4413004;32;19954;-68
2022/08/03 04:47:33;;;;;;;;;;;;;;;34.94;30.94;100045.34;4411696;32;20399;-68
2022/08/03 04:50:01;;;;;;;;;;;;;;;34.04;32.33;100045.44;4400283;32;20219;-68
2022/08/03 04:52:26;;;;;;;;;;;;;;;34.78;31.15;100044.94;4415970;32;19995;-68
2022/08/03 04:54:52;;;;;;;;;;;;;;;34.61;31.42;100047.37;4415540;32;19984;-68
2022/08/03 04:57:18;;;;;;;;;;;;;;;34.91;30.95;100055.38;4417942;32;20041;-68
2022/08/03 04:59:44;;;;;;;;;;;;;;;34.50;31.64;100066.34;4415116;32;19962;-68
2022/08/03 05:02:09;;;;;;;;;;;;;;;34.18;32.10;100056.00;4412670;32;20030;-68
2022/08/03 05:04:36;;;;;;;;;;;;;;;34.31;32.04;100067.19;4416123;32;20297;-68
2022/08/03 05:07:02;;;;;;;;;;;;;;;33.30;34.28;100063.97;4418576;32;20380;-67
2022/08/03 05:09:28;;;;;;;;;;;;;;;33.48;34.21;100058.75;4417828;32;19953;-68
2022/08/03 05:11:54;;;;;;;;;;;;;;;33.12;34.74;100062.56;4416683;32;19957;-68
2022/08/03 05:14:19;;;;;;;;;;;;;;;33.39;34.30;100069.06;4417942;32;21083;-68
2022/08/03 05:16:45;;;;;;;;;;;;;;;33.39;34.11;100069.06;4418468;32;20316;-68
2022/08/03 05:19:10;;;;;;;;;;;;;;;33.35;34.60;100071.66;4416350;32;20551;-68
2022/08/03 05:21:36;;;;;;;;;;;;;;;34.05;33.67;100073.28;4418360;32;19972;-68
2022/08/03 05:24:01;;;;;;;;;;;;;;;33.83;33.63;100074.50;4416769;32;19953;-68
2022/08/03 05:26:27;;;;;;;;;;;;;;;34.20;33.23;100079.50;4419363;32;20023;-68
2022/08/03 05:28:52;;;;;;;;;;;;;;;33.70;33.49;100081.63;4415902;32;19998;-68
2022/08/03 05:31:18;;;;;;;;;;;;;;;34.03;33.01;100084.81;4415660;32;20527;-68
2022/08/03 05:33:43;;;;;;;;;;;;;;;33.72;33.31;100081.00;4415946;32;20004;-68
2022/08/03 05:36:09;;;;;;;;;;;;;;;33.87;33.19;100086.53;4418213;32;20012;-68
2022/08/03 05:38:35;;;;;;;;;;;;;;;34.03;32.66;100087.72;4415234;32;19993;-69
2022/08/03 05:41:02;;;;;;;;;;;;;;;33.82;33.21;100084.66;4414978;32;20334;-68
2022/08/03 05:43:28;;;;;;;;;;;;;;;33.24;33.62;100095.59;4416826;32;20043;-68
2022/08/03 05:45:54;;;;;;;;;;;;;;;33.40;33.34;100096.84;4419480;32;19998;-68
2022/08/03 05:48:19;;;;;;;;;;;;;;;33.52;33.33;100091.16;4415930;32;20750;-68
2022/08/03 05:50:45;;;;;;;;;;;;;;;33.59;33.15;100102.66;4415778;32;20005;-68
2022/08/03 05:53:10;;;;;;;;;;;;;;;33.51;33.19;100104.22;4417063;32;19960;-69
2022/08/03 05:55:36;;;;;;;;;;;;;;;33.39;33.77;100115.75;4414501;32;19994;-68
2022/08/03 05:58:02;;;;;;;;;;;;;;;33.77;33.69;100112.00;4415848;32;19964;-68
2022/08/03 06:00:28;;;;;;;;;;;;;;;33.19;34.43;100104.66;4413957;32;20024;-68
2022/08/03 06:02:53;;;;;;;;;;;;;;;33.16;34.65;100114.63;4415746;32;19996;-68
2022/08/03 06:05:19;;;;;;;;;;;;;;;32.55;35.78;100123.62;4417419;32;20000;-68
2022/08/03 06:07:45;;;;;;;;;;;;;;;33.14;34.57;100115.22;4414416;32;19957;-68
2022/08/03 06:10:11;;;;;;;;;;;;;;;33.03;34.73;100109.97;4414923;32;19959;-68
2022/08/03 06:12:36;;;;;;;;;;;;;;;33.11;34.86;100107.72;4418016;32;19957;-68
2022/08/03 06:15:03;;;;;;;;;;;;;;;33.59;33.95;100116.50;4418258;32;19988;-68
2022/08/03 06:17:28;;;;;;;;;;;;;;;33.16;34.09;100121.19;4414595;32;20409;-68
2022/08/03 06:19:54;;;;;;;;;;;;;;;33.63;33.75;100117.56;4417017;32;19958;-68
2022/08/03 06:22:20;;;;;;;;;;;;;;;33.62;33.59;100116.03;4413917;32;20704;-68
2022/08/03 06:24:46;;;;;;;;;;;;;;;33.83;33.24;100118.31;4415783;32;19980;-68
2022/08/03 06:27:11;;;;;;;;;;;;;;;33.88;33.29;100114.34;4415256;32;20001;-68
2022/08/03 06:29:37;;;;;;;;;;;;;;;33.36;33.74;100125.69;4418385;32;19984;-68
2022/08/03 06:32:02;;;;;;;;;;;;;;;34.00;32.93;100126.91;4417057;32;20044;-68
2022/08/03 06:34:28;;;;;;;;;;;;;;;34.58;32.11;100130.44;4416613;32;20001;-68
2022/08/03 06:36:53;;;;;;;;;;;;;;;34.55;32.05;100132.47;4416280;32;20012;-68
2022/08/03 06:39:20;;;;;;;;;;;;;;;34.59;31.93;100137.81;4413217;32;20012;-68
2022/08/03 06:41:46;;;;;;;;;;;;;;;34.60;32.00;100140.12;4413766;32;19972;-68
2022/08/03 06:44:11;;;;;;;;;;;;;;;34.53;31.71;100138.16;4413796;32;19958;-69
2022/08/03 06:46:37;;;;;;;;;;;;;;;34.43;32.00;100140.34;4417776;32;20008;-68
2022/08/03 06:49:02;;;;;;;;;;;;;;;34.42;31.87;100140.97;4412696;32;19989;-68
2022/08/03 06:51:28;;;;;;;;;;;;;;;34.92;30.97;100130.00;4416338;32;19964;-68
2022/08/03 06:53:53;;;;;;;;;;;;;;;34.47;31.95;100134.78;4415826;32;19997;-68
2022/08/03 06:56:19;;;;;;;;;;;;;;;34.49;31.31;100137.88;4414917;32;20015;-68
2022/08/03 06:58:46;;;;;;;;;;;;;;;35.00;30.32;100136.41;4416104;32;20000;-68
2022/08/03 07:01:11;;;;;;;;;;;;;;;35.05;30.34;100147.00;4416522;32;19996;-68
2022/08/03 07:03:37;;;;;;;;;;;;;;;34.94;30.24;100151.34;4415380;32;20395;-68
2022/08/03 07:06:03;;;;;;;;;;;;;;;34.63;30.05;100144.72;4414545;32;19957;-68
2022/08/03 07:08:28;;;;;;;;;;;;;;;35.00;30.15;100151.78;4414453;32;20005;-68
2022/08/03 07:10:54;;;;;;;;;;;;;;;35.19;29.32;100153.84;4414556;32;20555;-68
2022/08/03 07:13:20;;;;;;;;;;;;;;;34.98;29.30;100142.88;4416942;32;20411;-68
2022/08/03 07:15:45;;;;;;;;;;;;;;;34.84;29.41;100147.69;4415190;32;19949;-68
2022/08/03 07:18:11;;;;;;;;;;;;;;;34.96;28.87;100168.28;4412822;32;19961;-68
2022/08/03 07:20:36;;;;;;;;;;;;;;;33.16;30.57;100155.44;4417311;32;19985;-67
2022/08/03 07:23:01;;;;;;;;;;;;;;;33.90;29.59;100159.03;4416253;32;20485;-68
2022/08/03 07:25:27;;;;;;;;;;;;;;;34.11;29.36;100167.16;4414065;32;20282;-68
2022/08/03 07:27:52;;;;;;;;;;;;;;;34.89;28.38;100160.47;4414296;32;19993;-68
2022/08/03 07:30:18;;;;;;;;;;;;;;;34.54;28.38;100174.00;4416250;32;20016;-68
2022/08/03 07:32:43;;;;;;;;;;;;;;;33.74;28.92;100172.41;4414656;32;20216;-69
2022/08/03 07:35:10;;;;;;;;;;;;;;;34.24;28.27;100163.75;4415153;32;20366;-68
2022/08/03 07:37:36;;;;;;;;;;;;;;;34.57;27.82;100178.59;4412227;32;19973;-68
2022/08/03 07:40:03;;;;;;;;;;;;;;;34.10;28.34;100171.47;4415455;32;20291;-68
2022/08/03 07:42:28;;;;;;;;;;;;;;;34.33;28.16;100180.50;4415288;32;20005;-68
2022/08/03 07:44:55;;;;;;;;;;;;;;;34.57;27.90;100179.34;4416185;32;19965;-68
2022/08/03 07:47:22;;;;;;;;;;;;;;;34.11;28.08;100173.75;4413447;32;20366;-68
2022/08/03 07:49:48;;;;;;;;;;;;;;;34.50;27.98;100185.38;4416048;32;19981;-68
2022/08/03 07:54:59;;;;;;;;;;;;;;;34.38;27.31;100199.87;4414332;32;20369;-68
2022/08/03 07:57:24;;;;;;;;;;;;;;;34.67;26.81;100194.72;4415620;32;19993;-68
2022/08/03 07:59:50;;;;;;;;;;;;;;;34.15;27.75;100199.59;4415418;32;19992;-68
2022/08/03 08:02:16;;;;;;;;;;;;;;;34.43;27.04;100198.78;4414236;32;19985;-68
2022/08/03 08:04:41;;;;;;;;;;;;;;;34.64;26.79;100193.03;4416986;32;20077;-68
2022/08/03 08:07:07;;;;;;;;;;;;;;;34.45;26.75;100196.03;4415327;32;19989;-68
2022/08/03 08:09:33;;;;;;;;;;;;;;;34.74;26.57;100208.38;4411859;32;20020;-68
2022/08/03 08:11:58;;;;;;;;;;;;;;;34.84;25.84;100203.25;4412742;32;19993;-68
2022/08/03 08:14:24;;;;;;;;;;;;;;;33.94;26.96;100190.69;4412914;32;20066;-68
2022/08/03 08:16:50;;;;;;;;;;;;;;;34.21;26.79;100200.06;4413638;32;20083;-68
2022/08/03 08:19:16;;;;;;;;;;;;;;;34.35;26.49;100190.16;4414270;32;20276;-68
2022/08/03 08:21:42;;;;;;;;;;;;;;;33.83;27.40;100197.13;4418985;32;19978;-67
2022/08/03 08:24:08;;;;;;;;;;;;;;;33.91;27.41;100201.47;4412791;32;20064;-67
2022/08/03 08:26:33;;;;;;;;;;;;;;;33.99;27.18;100210.06;4417163;32;20323;-68
2022/08/03 08:28:59;;;;;;;;;;;;;;;33.47;27.85;100197.28;4414404;32;20013;-69
2022/08/03 08:31:24;;;;;;;;;;;;;;;33.98;27.25;100202.69;4418962;32;19967;-68
2022/08/03 08:33:50;;;;;;;;;;;;;;;34.32;26.93;100202.31;4414583;32;19993;-68
2022/08/03 08:36:15;;;;;;;;;;;;;;;34.99;25.99;100205.81;4414264;32;19968;-69
2022/08/03 08:38:43;;;;;;;;;;;;;;;34.70;26.40;100211.00;4412444;32;20239;-68
2022/08/03 08:41:09;;;;;;;;;;;;;;;34.95;25.87;100207.69;4419703;32;20004;-68
2022/08/03 08:43:35;;;;;;;;;;;;;;;35.63;25.24;100206.69;4415123;32;19984;-68
2022/08/03 08:46:01;;;;;;;;;;;;;;;35.79;24.05;100205.63;4417964;32;20288;-68
2022/08/03 08:48:29;;;;;;;;;;;;;;;35.17;24.78;100215.91;4417316;32;19968;-68
2022/08/03 08:50:55;;;;;;;;;;;;;;;34.49;24.94;100213.84;4418204;32;20335;-68
2022/08/03 08:53:21;;;;;;;;;;;;;;;34.14;25.56;100207.59;4419034;32;20037;-68
2022/08/03 08:55:49;;;;;;;;;;;;;;;34.55;25.14;100208.44;4418379;32;19965;-68
2022/08/03 08:58:18;;;;;;;;;;;;;;;34.78;24.86;100214.50;4416941;32;20035;-68
2022/08/03 09:00:44;;;;;;;;;;;;;;;35.14;24.62;100213.44;4416494;32;19994;-68
2022/08/03 09:03:10;;;;;;;;;;;;;;;35.60;24.34;100210.88;4417417;32;19957;-68
2022/08/03 09:05:37;;;;;;;;;;;;;;;36.04;23.75;100220.53;4417912;32;20391;-68
2022/08/03 09:08:04;;;;;;;;;;;;;;;36.52;22.79;100219.31;4416303;32;20002;-68
2022/08/03 09:10:30;;;;;;;;;;;;;;;37.21;22.29;100216.50;4416463;32;19995;-68
2022/08/03 09:12:55;;;;;;;;;;;;;;;37.79;21.66;100220.84;4416722;32;20295;-68
2022/08/03 09:15:23;;;;;;;;;;;;;;;37.59;21.55;100230.59;4417895;32;20340;-68
2022/08/03 09:17:49;;;;;;;;;;;;;;;37.86;21.35;100222.00;4418026;32;20326;-68
2022/08/03 09:20:15;;;;;;;;;;;;;;;37.15;22.47;100221.94;4418764;32;20012;-68
2022/08/03 09:23:00;;;;;;;;;;;;;;;36.80;22.35;100218.22;4420611;32;20082;-68
2022/08/03 09:25:27;;;;;;;;;;;;;;;36.87;22.17;100217.97;4418920;32;20231;-68
2022/08/03 09:27:53;;;;;;;;;;;;;;;37.11;21.90;100221.69;4416669;32;20003;-68
2022/08/03 09:30:19;;;;;;;;;;;;;;;37.12;21.90;100226.16;4416971;32;19957;-68
2022/08/03 09:32:46;;;;;;;;;;;;;;;37.51;21.51;100227.16;4416114;32;19997;-69
2022/08/03 09:35:12;;;;;;;;;;;;;;;36.54;22.47;100231.94;4416560;32;20533;-69
2022/08/03 09:37:39;;;;;;;;;;;;;;;36.90;22.13;100231.38;4414555;32;20209;-68
2022/08/03 09:40:05;;;;;;;;;;;;;;;35.59;23.40;100232.75;4414864;32;20068;-68
2022/08/03 09:42:30;;;;;;;;;;;;;;;35.66;23.75;100225.91;4416054;32;20056;-68
2022/08/03 09:44:56;;;;;;;;;;;;;;;35.84;23.38;100230.91;4416775;32;19966;-69
2022/08/03 09:47:31;;;;;;;;;;;;;;;36.04;22.99;100235.19;4418247;32;20307;-69
2022/08/03 09:50:00;;;;;;;;;;;;;;;34.71;24.29;100224.22;4415717;32;20336;-68
2022/08/03 09:52:42;;;;;;;;;;;;;;;35.28;23.78;100232.75;4415003;32;19993;-68
2022/08/03 09:55:09;;;;;;;;;;;;;;;35.51;23.55;100224.19;4415433;32;20001;-68
2022/08/03 09:57:35;;;;;;;;;;;;;;;35.73;23.40;100230.78;4417176;32;19957;-68
2022/08/03 10:00:11;;;;;;;;;;;;;;;36.16;22.96;100236.00;4416296;32;19996;-68
2022/08/03 10:02:36;;;;;;;;;;;;;;;36.49;22.86;100232.28;4415725;32;19992;-68
2022/08/03 10:05:03;;;;;;;;;;;;;;;36.01;23.37;100248.16;4420450;32;19969;-68
2022/08/03 10:07:28;;;;;;;;;;;;;;;35.61;23.73;100241.66;4418438;32;20329;-69
2022/08/03 10:09:56;;;;;;;;;;;;;;;36.22;23.18;100233.47;4417338;32;20269;-68
2022/08/03 10:12:22;;;;;;;;;;;;;;;36.18;23.18;100235.38;4416284;32;20040;-68
2022/08/03 10:14:47;;;;;;;;;;;;;;;36.16;23.07;100244.00;4399740;32;19950;-67
2022/08/03 10:17:13;;;;;;;;;;;;;;;36.48;22.97;100239.56;4414308;32;19996;-67
2022/08/03 10:19:40;;;;;;;;;;;;;;;36.73;22.62;100252.25;4416732;32;20197;-68
2022/08/03 10:22:14;;;;;;;;;;;;;;;37.23;22.01;100252.59;4418897;32;20133;-67
2022/08/03 10:24:46;;;;;;;;;;;;;;;36.24;22.83;100241.63;4416281;32;20011;-68
2022/08/03 10:27:12;;;;;;;;;;;;;;;36.03;23.26;100248.31;4415072;32;19986;-68
2022/08/03 10:29:41;;;;;;;;;;;;;;;35.12;24.24;100252.09;4418593;32;20335;-68
2022/08/03 10:32:10;;;;;;;;;;;;;;;35.29;24.12;100254.78;4415311;32;20073;-68
2022/08/03 10:34:39;;;;;;;;;;;;;;;36.02;23.41;100248.94;4415641;32;20036;-68
2022/08/03 10:37:08;;;;;;;;;;;;;;;36.58;22.76;100249.78;4402299;32;19996;-68
2022/08/03 10:39:34;;;;;;;;;;;;;;;37.13;21.96;100248.22;4397760;32;19954;-68
2022/08/03 10:42:00;;;;;;;;;;;;;;;37.02;22.17;100252.69;4400862;32;19981;-68
2022/08/03 10:44:28;;;;;;;;;;;;;;;36.92;22.25;100242.47;4398748;32;20409;-68
2022/08/03 10:46:55;;;;;;;;;;;;;;;37.97;21.15;100247.63;4402470;32;19981;-68
2022/08/03 10:49:21;;;;;;;;;;;;;;;38.03;21.32;100258.97;4399414;32;19991;-68
2022/08/03 10:51:47;;;;;;;;;;;;;;;36.81;22.26;100249.09;4400125;32;20630;-68
2022/08/03 10:54:34;;;;;;;;;;;;;;;37.17;21.95;100248.47;4395573;32;19992;-68
2022/08/03 11:02:19;;;;;;;;;;;;;;;36.35;23.01;100257.75;3939248;32;15901495;-68
2022/08/03 11:04:45;;;;;;;;;;;;;;;36.35;23.01;100257.75;4430365;32;19953;-68
2022/08/03 11:09:52;;;;;;;;;;;;;;;37.95;21.57;100250.44;3966667;31;15717745;-68
2022/08/03 11:15:03;;;;;;;;;;;;;;;39.27;20.21;100255.19;3957765;31;15716652;-69
2022/08/03 11:17:29;;;;;;;;;;;;;;;39.27;20.21;100255.19;4442788;32;20347;-69
2022/08/03 11:19:55;;;;;;;;;;;;;;;39.26;19.96;100265.44;4443486;32;20048;-68
2022/08/03 11:22:20;;;;;;;;;;;;;;;38.72;20.65;100261.63;4443382;32;20002;-68
2022/08/03 11:35:17;;;;;;;;;;;;;;;38.87;20.61;100264.69;3967312;31;15716817;-69
2022/08/03 11:40:43;;;;;;;;;;;;;;;39.28;19.98;100267.75;3967085;31;15722699;-69
2022/08/03 11:45:55;;;;;;;;;;;;;;;40.32;18.74;100258.63;3952333;32;15722588;-69
2022/08/03 11:48:21;;;;;;;;;;;;;;;40.32;18.74;100258.63;4436795;32;19972;-70
2022/08/03 11:50:46;;;;;;;;;;;;;;;40.73;18.19;100253.31;4430264;32;20387;-68
2022/08/03 11:53:15;;;;;;;;;;;;;;;41.17;17.55;100249.53;4430802;32;20017;-68
2022/08/03 11:55:43;;;;;;;;;;;;;;;41.83;16.98;100266.59;4431398;32;19976;-68
2022/08/03 11:58:14;;;;;;;;;;;;;;;41.75;17.03;100259.56;4432012;32;20303;-68
2022/08/03 12:00:39;;;;;;;;;;;;;;;41.68;17.02;100269.62;4433194;32;20304;-68
2022/08/03 12:03:07;;;;;;;;;;;;;;;41.73;17.37;100272.06;4434067;32;20020;-68
2022/08/03 12:05:33;;;;;;;;;;;;;;;40.57;18.29;100258.38;4433456;32;19993;-68
2022/08/03 12:07:58;;;;;;;;;;;;;;;40.96;18.13;100267.72;4436474;32;20275;-68
2022/08/03 12:10:25;;;;;;;;;;;;;;;40.92;17.57;100264.56;4432299;32;20295;-68
2022/08/03 12:12:58;;;;;;;;;;;;;;;40.52;18.09;100267.72;4431605;32;20005;-68
2022/08/03 12:15:25;;;;;;;;;;;;;;;40.86;17.92;100263.50;4435380;32;20288;-68
2022/08/03 12:17:50;;;;;;;;;;;;;;;39.65;19.20;100271.25;4427792;32;19961;-68
2022/08/03 12:20:20;;;;;;;;;;;;;;;39.72;19.09;100260.56;4431224;32;20335;-68
2022/08/03 12:22:46;;;;;;;;;;;;;;;39.29;19.47;100270.03;4436686;32;19957;-68
2022/08/03 12:25:19;;;;;;;;;;;;;;;38.41;19.95;100285.56;4432009;32;19973;-67
2022/08/03 12:27:45;;;;;;;;;;;;;;;38.53;20.34;100294.34;4431540;32;19960;-67
2022/08/03 12:30:11;;;;;;;;;;;;;;;37.40;20.36;100283.72;4429408;32;20295;-68
2022/08/03 12:32:36;;;;;;;;;;;;;;;38.04;20.59;100278.91;4433637;32;19988;-68
2022/08/03 12:35:04;;;;;;;;;;;;;;;38.41;20.48;100273.03;4430333;32;19996;-68
2022/08/03 12:37:30;;;;;;;;;;;;;;;38.56;20.37;100276.16;4432287;32;19961;-68
2022/08/03 12:40:00;;;;;;;;;;;;;;;39.49;19.83;100280.00;4430264;32;20319;-68
2022/08/03 12:42:29;;;;;;;;;;;;;;;39.24;19.66;100285.94;4429088;32;19960;-68
2022/08/03 12:44:55;;;;;;;;;;;;;;;38.75;19.92;100269.94;4429799;32;20019;-68
2022/08/03 12:47:21;;;;;;;;;;;;;;;38.72;20.02;100268.28;4430437;32;19949;-68
2022/08/03 12:49:47;;;;;;;;;;;;;;;39.29;19.74;100267.09;4428976;32;20797;-69
2022/08/03 12:52:14;;;;;;;;;;;;;;;40.19;18.78;100262.34;4435243;32;20040;-68
2022/08/03 12:54:40;;;;;;;;;;;;;;;39.32;18.57;100273.84;4430727;32;19989;-68
2022/08/03 12:57:08;;;;;;;;;;;;;;;39.02;18.81;100266.31;4422048;32;19965;-68
2022/08/03 13:04:49;;;;;;;;;;;;;;;40.98;17.20;100285.50;3961983;31;15715252;-68
2022/08/03 13:07:16;;;;;;;;;;;;;;;40.98;17.20;100285.50;4423139;32;19966;-68
2022/08/03 13:09:44;;;;;;;;;;;;;;;40.72;17.11;100277.56;4422179;32;19969;-68
2022/08/03 13:12:11;;;;;;;;;;;;;;;41.26;16.44;100277.28;4422758;32;19975;-68
2022/08/03 13:14:37;;;;;;;;;;;;;;;42.01;15.74;100263.69;4423912;32;19969;-69
2022/08/03 13:17:03;;;;;;;;;;;;;;;41.73;16.10;100275.03;4422653;32;20599;-69